X  Luk Metar data     EDJA Memmingen Allgau Airport
Temperatur
8°C Temperatur
7°C Duggpunkt
93% Fugtighed



Vind
8 KM/T
5 MPT
2 M/S
4 KNOB



270°
V
Nuværende forhold

For det meste spredte skyer For det meste spredte skyer
Tryk 1017.95 (hPa) - 30.06 (inHg)
Sigt 6 (mil) - 9.7 (km)
Lufthavn
Lufthavnskode EDJA

Lokation: Memmingen Allgau Airport
Afstand: 50 (km)

Metar:
EDJA 130320Z AUTO 27004KT 210V330 9999 // SCT070/// BKN083/// OVC100/// 08/07 Q1018

Tid: 13-06-2024 05:20 CEST